Briefing drone pour Plombieres-les-dijon

Rechercher une autre localisation

Conditions de vol :


Nous sommes le : Mardi 22 septembre 2020
Il est 10:20 UTC (12:20 LT)

Lever de soleil : 05:01 UTC (07:01 LT)
Coucher de soleil : 18:04 UTC (20:04 LT)

Météo

L'essentiel des conditions de vol

VIGILANCE MÉTÉO FRANCE - Côte-dOr (21)
Vigilance :
CARTES DES FRONTS
METAR de LFSD
LFSD 221000Z AUTO 11004KT 060V170 9999 FEW022 22/16 Q1013

Date d'émission: 22/09/2020
Heure d'émission: 10:00 UTC
Vent: 110° (variable du 060° au 170°) pour 4 KT (7 km/h)
Visibilité horizontale: > 10 km
Plafond :
- Peu de nuages à 2200ft (671m)
Température: 22 °C
Point de rosée: 16 °C
Humidité: 69%
Pression (QNH): 1013 hPa
TAF de LFSD
LFSD 010600Z 0100/0124 CNL

Conditions prévues :

Heure d'émission : Bulletin éffectué le 01 à 00:00 UTC
Prévision : Valide du 01 a 00:00 UTC au 01 a 23:59 UTC
Nuages : à 0ft (0 m)
WEBCAM POUR PLOMBIERES-LES-DIJON

Réglementation

Voler en sécurité

CARTES AERONAUTIQUE 1/500.000
CARTES VAC (LFSD)
SUP AIP




Chargement des AIP...
NOTAM (PLOMBIERES-LES-DIJON + Terrain à proximité / FIR )




Chargement des NOTAMS...
CONTACT PREFECTURE 21
Côte-dOr (21) : pref-drone@cote-dor.gouv.fr


Avertissement : Les données mises à disposition sont indicatives. Oxygène Drone ne pourra être tenu responsable de dégâts causés aux biens et aux personnes.